Time;durP1;ratioP1;P1;durP2;ratioP2;P2;SDS_P1;SDS_P2;PMS_P1;PMS_P2;Temp;Humidity;BMP_temperature;BMP_pressure;BME280_temperature;BME280_humidity;BME280_pressure;Samples;Min_cycle;Max_cycle;Signal;HPM_P1;HPM_P2
2022/02/24 00:02:40;;;;;;;8.83;4.70;;;3.30;99.90;;;;;;6090745;23;20251;-84
2022/02/24 00:05:28;;;;;;;9.65;6.43;;;3.40;99.90;;;;;;6091151;23;20181;-83
2022/02/24 00:08:17;;;;;;;12.48;5.80;;;3.40;99.90;;;;;;6177478;22;20042;-86
2022/02/24 00:11:05;;;;;;;10.20;4.70;;;3.40;99.90;;;;;;6092233;23;20030;-83
2022/02/24 00:13:55;;;;;;;6.63;4.38;;;3.50;99.90;;;;;;6089711;23;20030;-83
2022/02/24 00:16:44;;;;;;;14.32;5.05;;;3.60;99.90;;;;;;6089227;23;20106;-83
2022/02/24 00:19:36;;;;;;;10.00;5.00;;;3.70;99.90;;;;;;6168997;23;20282;-83
2022/02/24 00:22:26;;;;;;;7.70;5.00;;;3.70;99.90;;;;;;6091640;23;20030;-85
2022/02/24 00:25:13;;;;;;;6.22;4.30;;;3.80;99.90;;;;;;6177297;23;20054;-86
2022/02/24 00:28:00;;;;;;;8.25;4.57;;;3.80;99.90;;;;;;6169513;23;20384;-85
2022/02/24 00:30:47;;;;;;;9.82;4.72;;;4.00;99.90;;;;;;6197004;23;20084;-84
2022/02/24 00:33:38;;;;;;;6.90;4.25;;;4.10;99.90;;;;;;6197348;23;20123;-86
2022/02/24 00:36:28;;;;;;;9.98;4.43;;;4.40;99.90;;;;;;6093990;23;20121;-82
2022/02/24 00:39:16;;;;;;;7.50;4.32;;;4.40;99.90;;;;;;6094110;23;20086;-83
2022/02/24 00:42:03;;;;;;;6.05;3.70;;;4.40;99.90;;;;;;6092485;23;20030;-83
2022/02/24 00:44:50;;;;;;;9.57;5.13;;;4.30;99.90;;;;;;6092041;23;20047;-84
2022/02/24 00:47:38;;;;;;;10.05;5.07;;;4.20;99.90;;;;;;6092504;23;20038;-83
2022/02/24 00:50:25;;;;;;;7.28;4.50;;;4.10;99.90;;;;;;6091227;23;20101;-83
2022/02/24 00:53:19;;;;;;;7.13;4.72;;;4.00;99.90;;;;;;6091958;23;20133;-84
2022/02/24 00:56:06;;;;;;;10.93;4.72;;;4.00;99.90;;;;;;6092047;23;20100;-83
2022/02/24 00:58:55;;;;;;;10.07;4.97;;;4.10;99.90;;;;;;6091987;23;20063;-83
2022/02/24 01:01:43;;;;;;;11.45;4.28;;;4.10;99.90;;;;;;6090425;23;20037;-84
2022/02/24 01:04:30;;;;;;;10.30;4.95;;;4.10;99.90;;;;;;6091910;23;20106;-84
2022/02/24 01:07:18;;;;;;;9.50;5.28;;;4.10;99.90;;;;;;6092401;23;20026;-86
2022/02/24 01:10:06;;;;;;;9.55;5.40;;;4.10;99.90;;;;;;6175515;23;20058;-85
2022/02/24 01:12:53;;;;;;;10.00;5.32;;;4.10;99.90;;;;;;6090465;23;20057;-84
2022/02/24 01:15:42;;;;;;;8.50;5.20;;;4.00;99.90;;;;;;6096170;23;20030;-85
2022/02/24 01:18:29;;;;;;;7.85;4.90;;;4.00;99.90;;;;;;6089565;23;20026;-84
2022/02/24 01:21:19;;;;;;;9.20;5.15;;;4.00;99.90;;;;;;6091853;23;20618;-85
2022/02/24 01:24:06;;;;;;;12.10;4.95;;;4.00;99.90;;;;;;6091899;23;20103;-84
2022/02/24 01:26:53;;;;;;;9.93;5.07;;;4.00;99.90;;;;;;6100255;23;20026;-82
2022/02/24 01:29:44;;;;;;;8.48;4.70;;;4.00;99.90;;;;;;6094689;23;20026;-85
2022/02/24 01:32:34;;;;;;;11.45;5.10;;;4.00;99.90;;;;;;6092933;23;20095;-85
2022/02/24 01:35:21;;;;;;;10.20;5.07;;;4.10;99.90;;;;;;6092497;23;20026;-84
2022/02/24 01:38:09;;;;;;;12.50;5.57;;;4.00;99.90;;;;;;6092654;23;20492;-84
2022/02/24 01:40:58;;;;;;;9.93;5.32;;;4.10;99.90;;;;;;6092549;23;20448;-84
2022/02/24 01:43:47;;;;;;;8.77;5.18;;;4.10;99.90;;;;;;6093160;23;20549;-85
2022/02/24 01:46:36;;;;;;;10.10;4.68;;;4.10;99.90;;;;;;6092231;23;20373;-85
2022/02/24 01:49:24;;;;;;;7.88;5.07;;;4.00;99.90;;;;;;6092322;23;20096;-88
2022/02/24 01:52:12;;;;;;;12.10;5.63;;;4.00;99.90;;;;;;6178260;23;20125;-86
2022/02/24 01:54:59;;;;;;;12.52;5.68;;;4.00;99.90;;;;;;6205241;23;20042;-82
2022/02/24 01:57:48;;;;;;;13.50;5.65;;;4.00;99.90;;;;;;6103739;23;20026;-85
2022/02/24 02:00:37;;;;;;;10.30;5.80;;;4.00;99.90;;;;;;6199543;22;20439;-83
2022/02/24 02:03:25;;;;;;;8.57;5.50;;;4.00;99.90;;;;;;6092156;23;20050;-84
2022/02/24 02:06:18;;;;;;;9.65;5.60;;;4.00;99.90;;;;;;6189698;23;20031;-86
2022/02/24 02:09:06;;;;;;;11.00;5.70;;;4.00;99.90;;;;;;6176233;23;20045;-84
2022/02/24 02:11:53;;;;;;;10.60;6.13;;;3.90;99.90;;;;;;6101174;23;20027;-83
2022/02/24 02:14:40;;;;;;;11.68;5.53;;;3.80;99.90;;;;;;6094426;23;20049;-84
2022/02/24 02:17:27;;;;;;;8.35;5.60;;;3.80;99.90;;;;;;6093145;23;20122;-84
2022/02/24 02:20:16;;;;;;;9.23;5.15;;;3.80;99.90;;;;;;6092245;23;20329;-86
2022/02/24 02:23:03;;;;;;;7.95;5.32;;;3.80;99.90;;;;;;6174566;23;20026;-84
2022/02/24 02:25:52;;;;;;;12.57;5.38;;;3.80;99.90;;;;;;6176843;23;20034;-84
2022/02/24 02:28:40;;;;;;;9.23;5.18;;;3.80;99.90;;;;;;6092786;23;20030;-83
2022/02/24 02:31:27;;;;;;;11.10;5.10;;;3.80;99.90;;;;;;6092942;23;20317;-85
2022/02/24 02:34:17;;;;;;;8.88;5.40;;;3.90;99.90;;;;;;6090265;23;20034;-84
2022/02/24 02:37:04;;;;;;;9.82;5.78;;;3.90;99.90;;;;;;6092323;23;20100;-84
2022/02/24 02:39:51;;;;;;;8.98;5.00;;;4.00;99.90;;;;;;6173712;23;20084;-84
2022/02/24 02:42:39;;;;;;;11.55;5.30;;;4.00;99.90;;;;;;6197470;22;20058;-86
2022/02/24 02:45:28;;;;;;;10.75;4.85;;;4.10;99.90;;;;;;6091663;23;20034;-85
2022/02/24 02:48:18;;;;;;;8.90;4.95;;;4.10;99.90;;;;;;6093272;23;20434;-85
2022/02/24 02:51:07;;;;;;;8.35;5.00;;;4.20;99.90;;;;;;6190965;23;20030;-85
2022/02/24 02:53:54;;;;;;;8.80;5.05;;;4.30;99.90;;;;;;6091428;23;20033;-82
2022/02/24 02:56:42;;;;;;;12.40;5.07;;;4.30;99.90;;;;;;6091724;23;20034;-86
2022/02/24 02:59:29;;;;;;;7.57;4.80;;;4.40;99.90;;;;;;6090178;23;20030;-86
2022/02/24 03:02:17;;;;;;;12.20;5.15;;;4.40;99.90;;;;;;6197342;22;20394;-86
2022/02/24 03:05:05;;;;;;;7.90;4.70;;;4.40;99.90;;;;;;6091396;23;20053;-84
2022/02/24 03:07:52;;;;;;;7.25;4.38;;;4.40;99.90;;;;;;6092672;23;20776;-84
2022/02/24 03:10:42;;;;;;;7.03;4.32;;;4.40;99.90;;;;;;6093998;23;20034;-86
2022/02/24 03:13:30;;;;;;;7.32;4.20;;;4.40;99.90;;;;;;6092229;23;20027;-85
2022/02/24 03:16:20;;;;;;;9.10;4.60;;;4.40;99.90;;;;;;6092110;23;20453;-85
2022/02/24 03:19:34;;;;;;;8.60;4.55;;;4.40;99.90;;;;;;5159977;27;20748;-84
2022/02/24 03:22:26;;;;;;;7.43;3.95;;;4.40;99.90;;;;;;5140270;27;20050;-84
2022/02/24 03:25:13;;;;;;;9.68;4.70;;;4.40;99.90;;;;;;5149578;27;20035;-88
2022/02/24 03:28:02;;;;;;;7.93;4.30;;;4.30;99.90;;;;;;5139947;27;20073;-83
2022/02/24 03:30:51;;;;;;;10.35;4.85;;;4.30;99.90;;;;;;5113605;28;20101;-84
2022/02/24 03:33:41;;;;;;;8.32;4.90;;;4.30;99.90;;;;;;5135730;27;20133;-86
2022/02/24 03:36:28;;;;;;;8.07;4.80;;;4.20;99.90;;;;;;5146385;27;20054;-85
2022/02/24 03:39:15;;;;;;;9.02;4.78;;;4.10;99.90;;;;;;5138556;27;20518;-83
2022/02/24 03:42:04;;;;;;;9.02;4.88;;;4.10;99.90;;;;;;5131767;27;20043;-85
2022/02/24 03:44:51;;;;;;;7.40;4.93;;;3.90;99.90;;;;;;5131156;27;20039;-84
2022/02/24 03:47:41;;;;;;;6.88;4.88;;;3.90;99.90;;;;;;5118618;27;20096;-86
2022/02/24 03:50:28;;;;;;;6.63;4.80;;;3.80;99.90;;;;;;5117195;27;20461;-84
2022/02/24 03:53:15;;;;;;;6.15;4.65;;;3.80;99.90;;;;;;5133803;27;20047;-83
2022/02/24 03:56:07;;;;;;;13.10;5.55;;;3.80;99.90;;;;;;5131671;27;20146;-85
2022/02/24 03:58:54;;;;;;;7.30;4.53;;;3.80;99.90;;;;;;5144006;27;20547;-84
2022/02/24 04:01:43;;;;;;;11.07;4.95;;;3.80;99.90;;;;;;5138458;27;20043;-86
2022/02/24 04:04:31;;;;;;;7.97;5.25;;;3.90;99.90;;;;;;5138679;27;20099;-87
2022/02/24 04:07:20;;;;;;;9.80;5.22;;;4.00;99.90;;;;;;5146729;27;20043;-84
2022/02/24 04:10:08;;;;;;;6.65;4.72;;;4.00;99.90;;;;;;5136227;27;20485;-88
2022/02/24 04:12:55;;;;;;;10.02;5.25;;;4.00;99.90;;;;;;5140407;27;20036;-85
2022/02/24 04:15:42;;;;;;;8.38;5.35;;;4.00;99.90;;;;;;5131099;27;20040;-85
2022/02/24 04:18:30;;;;;;;7.00;4.70;;;4.00;99.90;;;;;;5130528;27;20123;-85
2022/02/24 04:21:17;;;;;;;9.52;5.57;;;4.00;99.90;;;;;;5139156;27;20061;-86
2022/02/24 04:24:05;;;;;;;9.38;5.22;;;4.00;99.90;;;;;;5139037;27;20139;-84
2022/02/24 04:26:53;;;;;;;8.88;5.50;;;4.00;99.90;;;;;;5133825;27;20035;-86
2022/02/24 04:29:41;;;;;;;8.55;4.75;;;4.10;99.90;;;;;;5141985;27;20417;-87
2022/02/24 04:32:30;;;;;;;13.63;5.55;;;4.10;99.90;;;;;;5137014;27;20051;-85
2022/02/24 04:35:17;;;;;;;12.40;5.63;;;4.10;99.90;;;;;;5122298;27;20047;-85
2022/02/24 04:38:04;;;;;;;11.50;6.53;;;4.10;99.90;;;;;;5118018;27;20058;-85
2022/02/24 04:40:51;;;;;;;16.35;7.45;;;4.10;99.90;;;;;;5119768;27;20055;-85
2022/02/24 04:43:39;;;;;;;14.52;6.90;;;4.20;99.90;;;;;;5109222;27;20046;-86
2022/02/24 04:46:28;;;;;;;12.70;6.90;;;4.20;99.90;;;;;;5119570;27;20047;-85
2022/02/24 04:49:15;;;;;;;11.68;6.35;;;4.20;99.90;;;;;;5116486;27;20052;-84
2022/02/24 04:52:03;;;;;;;12.25;7.40;;;4.20;99.90;;;;;;5123901;27;20122;-86
2022/02/24 04:54:50;;;;;;;15.32;7.50;;;4.10;99.90;;;;;;5117494;27;20116;-85
2022/02/24 04:57:39;;;;;;;14.52;7.82;;;4.00;99.90;;;;;;5119810;27;20065;-85
2022/02/24 05:00:29;;;;;;;14.32;7.50;;;4.00;99.90;;;;;;5116730;27;20054;-84
2022/02/24 05:03:18;;;;;;;15.00;8.30;;;3.90;99.90;;;;;;5126952;27;20039;-86
2022/02/24 05:06:06;;;;;;;13.82;7.50;;;3.80;99.90;;;;;;5110945;28;20425;-84
2022/02/24 05:08:53;;;;;;;13.63;7.28;;;3.80;99.90;;;;;;5114887;27;20065;-84
2022/02/24 05:11:40;;;;;;;15.68;8.00;;;3.80;99.90;;;;;;5123037;27;20114;-84
2022/02/24 05:14:27;;;;;;;14.07;7.05;;;3.80;99.90;;;;;;5121620;27;20135;-84
2022/02/24 05:17:15;;;;;;;14.60;7.53;;;3.80;99.90;;;;;;5124555;27;20353;-85
2022/02/24 05:20:03;;;;;;;16.33;8.35;;;3.80;99.90;;;;;;5118461;27;20046;-86
2022/02/24 05:22:50;;;;;;;12.68;7.18;;;3.80;99.90;;;;;;5120608;27;20042;-86
2022/02/24 05:25:40;;;;;;;16.02;7.93;;;3.80;99.90;;;;;;5126842;27;20043;-87
2022/02/24 05:28:30;;;;;;;12.63;7.70;;;3.90;99.90;;;;;;5102750;27;20043;-85
2022/02/24 05:31:20;;;;;;;13.55;7.78;;;3.90;99.90;;;;;;5115239;28;20059;-86
2022/02/24 05:34:07;;;;;;;14.50;8.38;;;3.90;99.90;;;;;;5112995;27;20070;-87
2022/02/24 05:37:17;;;;;;;16.45;8.43;;;3.90;99.90;;;;;;5108876;27;20058;-88
2022/02/24 05:56:58;;;;;;;16.60;10.95;;;3.80;99.90;;;;;;5040089;28;20045;-87
2022/02/24 05:59:56;;;;;;;;;;;;;;;;;;;;;
2022/02/24 06:02:55;;;;;;;23.05;11.85;;;3.80;99.90;;;;;;5117882;28;20105;-88
2022/02/24 06:06:05;;;;;;;22.48;11.98;;;3.80;99.90;;;;;;5117457;28;20124;-87
2022/02/24 06:09:25;;;;;;;;;;;3.80;99.90;;;;;;5111114;28;20044;-90
2022/02/24 06:13:48;;;;;;;;;;;;;;;;;;;;;
2022/02/24 06:33:41;;;;;;;22.35;11.50;;;3.70;99.90;;;;;;4853666;29;20152;-83
2022/02/24 06:36:33;;;;;;;21.80;11.65;;;3.70;99.90;;;;;;4901615;29;20079;-84
2022/02/24 06:39:28;;;;;;;26.20;11.73;;;3.80;99.90;;;;;;4960562;28;20074;-87
2022/02/24 06:45:29;;;;;;;16.33;9.88;;;3.90;99.90;;;;;;5076163;28;20059;-87
2022/02/24 06:48:20;;;;;;;23.23;12.10;;;4.00;99.90;;;;;;5080010;28;20040;-87
2022/02/24 06:51:16;;;;;;;21.73;12.45;;;4.00;99.90;;;;;;5088248;28;20059;-89
2022/02/24 06:54:12;;;;;;;17.25;11.65;;;4.00;99.90;;;;;;5083101;28;20097;-86
2022/02/24 06:57:00;;;;;;;19.67;11.82;;;4.10;99.90;;;;;;5090120;28;20040;-83
2022/02/24 06:59:50;;;;;;;15.65;10.95;;;4.20;99.90;;;;;;5084942;28;20035;-85
2022/02/24 07:02:37;;;;;;;19.77;10.90;;;4.30;99.90;;;;;;5079517;28;20040;-83
2022/02/24 07:05:26;;;;;;;15.98;10.05;;;4.40;99.90;;;;;;5083862;27;20094;-83
2022/02/24 07:08:16;;;;;;;19.83;10.32;;;4.50;99.90;;;;;;5124639;27;20079;-83
2022/02/24 07:11:03;;;;;;;20.63;10.30;;;4.60;99.90;;;;;;5121349;28;20157;-85
2022/02/24 07:14:07;;;;;;;15.82;10.77;;;4.60;99.90;;;;;;5116012;28;20123;-85
2022/02/24 07:16:56;;;;;;;17.65;10.55;;;4.70;99.90;;;;;;5120296;28;20058;-84
2022/02/24 07:19:50;;;;;;;15.75;10.02;;;4.70;99.90;;;;;;5103467;28;20077;-85
2022/02/24 07:22:37;;;;;;;15.18;9.60;;;4.80;99.90;;;;;;5110574;28;20048;-84
2022/02/24 07:25:26;;;;;;;17.17;9.93;;;4.90;99.90;;;;;;5117047;28;20073;-83
2022/02/24 07:28:14;;;;;;;16.35;10.13;;;5.00;99.90;;;;;;5113880;28;20100;-84
2022/02/24 07:31:05;;;;;;;15.07;9.50;;;5.00;99.90;;;;;;5110445;28;20043;-83
2022/02/24 07:33:53;;;;;;;15.43;9.57;;;5.10;99.90;;;;;;5101053;28;20051;-82
2022/02/24 07:36:43;;;;;;;15.60;9.60;;;5.10;99.90;;;;;;5115421;28;20051;-82
2022/02/24 07:39:31;;;;;;;17.30;10.20;;;5.20;99.90;;;;;;5119167;28;20051;-81
2022/02/24 07:42:19;;;;;;;16.17;9.00;;;5.30;99.90;;;;;;5124895;28;20077;-82
2022/02/24 07:45:08;;;;;;;13.65;8.45;;;5.30;99.90;;;;;;5103110;28;20058;-83
2022/02/24 07:47:56;;;;;;;13.45;9.32;;;5.50;99.90;;;;;;5107346;28;20127;-82
2022/02/24 07:50:44;;;;;;;16.50;8.82;;;5.60;99.90;;;;;;5109668;27;20121;-83
2022/02/24 07:53:31;;;;;;;14.48;8.63;;;5.60;99.90;;;;;;5121120;28;20043;-82
2022/02/24 07:56:19;;;;;;;11.15;7.47;;;5.70;99.90;;;;;;5120848;28;20374;-83
2022/02/24 07:59:07;;;;;;;18.35;9.18;;;5.90;99.90;;;;;;5120463;28;20470;-85
2022/02/24 08:01:56;;;;;;;12.27;7.95;;;6.00;99.90;;;;;;5116356;27;20119;-83
2022/02/24 08:04:45;;;;;;;13.50;7.88;;;6.20;99.90;;;;;;5119650;27;20040;-85
2022/02/24 08:07:33;;;;;;;12.93;7.82;;;6.40;99.90;;;;;;5126303;27;20509;-84
2022/02/24 08:10:26;;;;;;;15.15;7.90;;;6.50;99.90;;;;;;5107763;27;20103;-83
2022/02/24 08:13:13;;;;;;;14.93;7.05;;;6.50;99.90;;;;;;5121312;27;20066;-83
2022/02/24 08:16:03;;;;;;;11.63;6.85;;;6.60;99.90;;;;;;5103050;28;20047;-85
2022/02/24 08:18:50;;;;;;;16.52;7.72;;;6.60;99.90;;;;;;5104360;27;20054;-84
2022/02/24 08:21:38;;;;;;;12.10;6.70;;;6.90;99.90;;;;;;5129768;27;20116;-82
2022/02/24 08:24:25;;;;;;;11.68;6.85;;;7.20;99.90;;;;;;5116695;27;20046;-82
2022/02/24 08:27:17;;;;;;;9.98;6.80;;;7.30;99.90;;;;;;5120689;27;20442;-84
2022/02/24 08:30:10;;;;;;;11.55;6.47;;;7.40;99.90;;;;;;5123812;27;20058;-83
2022/02/24 08:32:57;;;;;;;9.43;6.07;;;7.70;99.90;;;;;;5126587;27;20164;-82
2022/02/24 08:35:48;;;;;;;9.57;5.57;;;8.30;99.90;;;;;;5131309;27;20096;-82
2022/02/24 08:38:35;;;;;;;10.32;5.50;;;8.50;99.90;;;;;;5126881;27;20043;-82
2022/02/24 08:41:44;;;;;;;9.02;5.18;;;8.90;99.90;;;;;;5118430;27;20046;-85
2022/02/24 08:44:31;;;;;;;6.53;4.88;;;9.40;99.90;;;;;;5123721;27;20043;-83
2022/02/24 08:47:19;;;;;;;8.07;4.85;;;9.30;99.90;;;;;;5129347;27;20126;-84
2022/02/24 08:50:11;;;;;;;10.00;4.80;;;9.40;99.90;;;;;;5104859;28;20090;-84
2022/02/24 08:53:24;;;;;;;8.35;4.88;;;9.40;99.90;;;;;;5106157;27;20059;-84
2022/02/24 08:56:12;;;;;;;;;;;9.60;99.90;;;;;;5119932;27;20054;-82
2022/02/24 08:58:59;;;;;;;5.65;4.28;;;9.60;99.90;;;;;;5114627;28;19933;-86
2022/02/24 09:01:47;;;;;;;9.05;4.50;;;9.70;99.90;;;;;;5104559;28;20110;-84
2022/02/24 09:04:34;;;;;;;7.13;4.22;;;9.90;99.90;;;;;;5115938;28;20044;-85
2022/02/24 09:07:25;;;;;;;8.32;4.10;;;10.30;99.90;;;;;;5101860;28;20047;-85
2022/02/24 09:10:34;;;;;;;9.73;4.10;;;10.80;99.90;;;;;;5124710;27;20043;-84
2022/02/24 09:13:21;;;;;;;6.13;3.33;;;10.80;98.90;;;;;;5092917;27;20036;-86
2022/02/24 09:16:09;;;;;;;6.93;3.55;;;10.80;99.10;;;;;;5107423;27;20048;-87
2022/02/24 09:18:59;;;;;;;7.68;4.70;;;10.70;99.40;;;;;;5114517;27;20063;-86
2022/02/24 09:21:46;;;;;;;5.50;3.35;;;10.90;98.80;;;;;;5126292;27;20046;-85
2022/02/24 09:24:41;;;;;;;5.00;3.50;;;11.00;96.70;;;;;;5105678;27;20067;-85
2022/02/24 09:27:29;;;;;;;6.28;3.47;;;11.10;96.60;;;;;;5122725;27;20141;-87
2022/02/24 09:30:18;;;;;;;10.93;3.10;;;11.20;95.00;;;;;;5123723;27;20140;-87
2022/02/24 09:33:06;;;;;;;8.27;3.20;;;10.60;96.60;;;;;;5125486;27;20051;-86
2022/02/24 09:35:53;;;;;;;9.10;2.83;;;10.50;97.50;;;;;;5123840;27;20039;-86
2022/02/24 09:38:46;;;;;;;7.55;3.65;;;10.60;97.90;;;;;;5123885;27;20079;-86
2022/02/24 09:41:35;;;;;;;6.50;2.88;;;11.20;95.60;;;;;;5123489;27;20040;-87
2022/02/24 09:44:22;;;;;;;4.78;3.13;;;11.10;95.30;;;;;;5110248;27;20054;-88
2022/02/24 09:47:10;;;;;;;4.07;2.72;;;10.70;96.40;;;;;;5127342;27;20032;-88
2022/02/24 09:50:00;;;;;;;6.05;2.80;;;10.70;97.30;;;;;;5121445;27;20081;-87
2022/02/24 09:52:47;;;;;;;6.68;3.45;;;10.60;96.90;;;;;;5109615;27;20066;-84
2022/02/24 09:55:34;;;;;;;7.53;3.00;;;10.50;97.30;;;;;;5111901;27;20229;-83
2022/02/24 09:58:24;;;;;;;4.03;3.03;;;10.50;97.20;;;;;;5122143;27;20055;-89
2022/02/24 10:01:14;;;;;;;6.93;2.80;;;11.10;96.40;;;;;;5126732;27;20171;-85
2022/02/24 10:04:01;;;;;;;6.13;2.97;;;12.20;94.20;;;;;;5130418;27;20114;-86
2022/02/24 10:06:49;;;;;;;8.25;4.32;;;13.30;91.50;;;;;;5111754;27;20478;-87
2022/02/24 10:09:37;;;;;;;6.60;3.13;;;14.10;83.10;;;;;;5115801;27;20483;-88
2022/02/24 10:12:25;;;;;;;5.03;2.25;;;14.20;80.00;;;;;;5109208;27;20063;-86
2022/02/24 10:15:25;;;;;;;4.93;2.40;;;14.40;78.20;;;;;;5109638;28;20108;-85
2022/02/24 10:18:24;;;;;;;7.93;3.08;;;14.20;79.40;;;;;;5127207;27;20143;-89
2022/02/24 10:21:17;;;;;;;4.65;2.60;;;14.30;76.20;;;;;;5119850;27;20051;-88
2022/02/24 10:24:23;;;;;;;4.70;2.60;;;14.40;75.90;;;;;;5120876;27;20092;-89
2022/02/24 10:27:22;;;;;;;5.75;2.40;;;13.70;76.90;;;;;;5125105;27;20035;-86
2022/02/24 10:30:24;;;;;;;8.60;2.55;;;13.40;77.40;;;;;;5109938;27;20044;-90
2022/02/24 10:33:27;;;;;;;7.00;3.10;;;13.40;78.50;;;;;;5117829;27;20047;-88
2022/02/24 10:36:40;;;;;;;5.18;2.70;;;13.40;79.00;;;;;;5133396;27;20043;-90
2022/02/24 10:39:50;;;;;;;6.40;2.97;;;13.80;77.20;;;;;;5119377;27;20050;-86
2022/02/24 10:42:41;;;;;;;7.68;2.55;;;14.20;76.30;;;;;;5105065;27;20035;-85
2022/02/24 10:45:33;;;;;;;7.85;2.90;;;14.80;74.80;;;;;;5112261;27;20035;-86
2022/02/24 10:48:30;;;;;;;7.05;2.80;;;15.40;71.80;;;;;;5097553;27;20047;-86
2022/02/24 10:51:34;;;;;;;4.97;2.35;;;15.30;71.30;;;;;;5118211;27;20070;-86
2022/02/24 10:54:28;;;;;;;4.47;2.60;;;16.00;69.60;;;;;;5126051;27;20076;-88
2022/02/24 10:57:17;;;;;;;3.25;2.03;;;16.10;67.40;;;;;;5128761;27;20103;-84
2022/02/24 11:00:20;;;;;;;4.40;2.13;;;15.50;68.40;;;;;;5104350;28;20039;-88
2022/02/24 11:03:08;;;;;;;;;;;15.10;68.00;;;;;;5124240;27;20042;-88
2022/02/24 11:06:27;;;;;;;;;;;;;;;;;;;;;
2022/02/24 11:09:48;;;;;;;3.65;1.77;;;14.30;69.10;;;;;;5138705;27;20140;-88
2022/02/24 11:12:43;;;;;;;2.97;1.60;;;14.50;70.40;;;;;;5139037;27;20043;-88
2022/02/24 11:15:43;;;;;;;;;;;;;;;;;;;;;
2022/02/24 11:18:56;;;;;;;3.63;1.30;;;14.80;68.60;;;;;;5135645;27;20083;-88
2022/02/24 11:21:44;;;;;;;6.05;1.45;;;15.80;63.70;;;;;;5127608;28;20039;-86
2022/02/24 11:24:37;;;;;;;5.03;1.45;;;16.30;61.10;;;;;;5127395;27;20051;-85
2022/02/24 11:27:42;;;;;;;3.50;1.50;;;16.10;59.30;;;;;;5107154;28;20436;-86
2022/02/24 11:30:34;;;;;;;4.15;1.70;;;15.30;60.10;;;;;;5118536;28;20051;-87
2022/02/24 11:33:22;;;;;;;5.27;1.53;;;14.70;59.90;;;;;;5106863;28;20558;-85
2022/02/24 11:36:16;;;;;;;4.53;1.60;;;14.80;59.60;;;;;;5122879;28;20103;-84
2022/02/24 11:39:19;;;;;;;6.38;1.77;;;15.10;60.90;;;;;;5121317;27;20056;-85
2022/02/24 11:42:23;;;;;;;4.15;1.52;;;14.90;58.70;;;;;;5109340;27;20123;-85
2022/02/24 11:45:25;;;;;;;6.55;1.67;;;15.20;58.10;;;;;;5118589;27;20036;-87
2022/02/24 11:48:12;;;;;;;5.82;2.20;;;15.40;58.50;;;;;;5121495;27;20100;-85
2022/02/24 11:51:08;;;;;;;6.82;1.70;;;15.50;57.10;;;;;;5129361;27;20108;-85
2022/02/24 11:53:55;;;;;;;5.15;1.70;;;15.20;57.20;;;;;;5125507;27;20043;-87
2022/02/24 11:56:46;;;;;;;5.07;1.42;;;15.00;58.20;;;;;;5104391;27;20044;-88
2022/02/24 11:59:33;;;;;;;3.38;1.50;;;15.10;58.20;;;;;;5120314;27;20043;-87
2022/02/24 12:02:20;;;;;;;5.80;1.60;;;14.80;59.10;;;;;;5111417;27;20060;-86
2022/02/24 12:05:40;;;;;;;3.78;1.50;;;14.10;59.80;;;;;;5126976;27;20046;-86
2022/02/24 12:08:30;;;;;;;4.30;1.63;;;13.50;61.40;;;;;;5125854;27;20487;-84
2022/02/24 12:11:39;;;;;;;4.25;1.90;;;13.30;62.50;;;;;;5127032;27;20051;-88
2022/02/24 12:14:32;;;;;;;3.08;1.33;;;13.30;64.30;;;;;;5131350;27;20054;-84
2022/02/24 12:17:22;;;;;;;3.15;1.42;;;13.20;63.10;;;;;;5118557;27;20443;-86
2022/02/24 12:20:23;;;;;;;3.05;1.80;;;13.10;64.20;;;;;;5123782;27;20054;-83
2022/02/24 12:23:22;;;;;;;5.72;1.65;;;13.00;64.00;;;;;;5096219;27;20043;-85
2022/02/24 12:26:18;;;;;;;5.50;1.92;;;13.00;63.90;;;;;;5121696;27;20054;-87
2022/02/24 12:29:29;;;;;;;4.72;1.73;;;12.80;63.50;;;;;;5121425;27;20498;-86
2022/02/24 12:32:20;;;;;;;6.68;2.10;;;12.60;64.30;;;;;;5119485;27;20051;-86
2022/02/24 12:35:12;;;;;;;9.15;2.00;;;12.40;64.20;;;;;;5114009;27;20380;-84
2022/02/24 12:38:03;;;;;;;9.25;2.25;;;12.20;65.30;;;;;;5105096;27;20040;-81
2022/02/24 12:40:56;;;;;;;5.40;1.90;;;12.10;65.40;;;;;;5128310;27;20054;-84
2022/02/24 12:43:45;;;;;;;6.15;2.28;;;12.30;66.10;;;;;;5112587;27;20043;-86
2022/02/24 12:46:33;;;;;;;4.28;2.17;;;12.40;64.70;;;;;;5111169;27;20116;-85
2022/02/24 12:49:20;;;;;;;3.63;1.30;;;12.40;65.80;;;;;;5109041;27;20087;-84
2022/02/24 12:52:09;;;;;;;5.82;2.00;;;12.40;66.10;;;;;;5124654;27;20068;-85
2022/02/24 12:54:57;;;;;;;3.95;1.73;;;12.40;65.20;;;;;;5110378;27;20043;-86
2022/02/24 12:57:46;;;;;;;7.07;2.15;;;12.20;65.60;;;;;;5117412;27;20359;-84
2022/02/24 13:04:00;;;;;;;6.20;2.05;;;12.10;66.90;;;;;;5122465;27;20126;-84
2022/02/24 13:06:49;;;;;;;6.57;2.13;;;12.10;67.80;;;;;;5114238;27;20039;-85
2022/02/24 13:09:46;;;;;;;6.18;2.17;;;12.20;67.30;;;;;;5117257;27;20061;-85
2022/02/24 13:12:47;;;;;;;5.20;2.03;;;12.00;67.60;;;;;;5108127;27;20035;-87
2022/02/24 13:15:35;;;;;;;6.15;2.40;;;12.00;68.30;;;;;;5112721;27;20055;-86
2022/02/24 13:18:24;;;;;;;4.05;1.73;;;11.70;68.20;;;;;;5127129;27;20070;-85
2022/02/24 13:21:13;;;;;;;9.18;2.08;;;11.60;68.80;;;;;;5112616;27;20039;-86
2022/02/24 13:24:04;;;;;;;3.95;1.77;;;11.60;69.80;;;;;;5118396;27;20035;-86
2022/02/24 13:27:20;;;;;;;3.42;2.30;;;11.50;70.10;;;;;;5125337;27;20039;-85
2022/02/24 13:30:12;;;;;;;15.30;2.33;;;11.60;69.50;;;;;;5127825;27;20047;-83
2022/02/24 13:33:09;;;;;;;6.07;2.20;;;11.60;71.10;;;;;;5119124;27;20146;-84
2022/02/24 13:35:57;;;;;;;6.50;1.80;;;11.70;71.30;;;;;;5114310;27;20043;-83
2022/02/24 13:38:45;;;;;;;4.55;2.00;;;11.60;69.70;;;;;;5107515;27;20063;-83
2022/02/24 13:41:33;;;;;;;5.95;2.08;;;11.50;69.70;;;;;;5102879;27;20119;-83
2022/02/24 13:44:25;;;;;;;5.50;1.90;;;11.40;70.90;;;;;;5105307;27;20054;-87
2022/02/24 13:47:22;;;;;;;5.80;1.73;;;11.40;70.70;;;;;;5130593;27;20047;-85
2022/02/24 13:50:11;;;;;;;6.30;2.17;;;11.30;71.10;;;;;;5103997;27;20138;-87
2022/02/24 13:52:58;;;;;;;4.47;1.67;;;11.20;71.00;;;;;;5111419;27;20061;-84
2022/02/24 13:56:01;;;;;;;7.30;1.90;;;11.20;71.30;;;;;;5105616;27;20036;-84
2022/02/24 13:58:49;;;;;;;6.03;2.20;;;11.10;72.10;;;;;;5115851;27;20108;-84
2022/02/24 14:01:39;;;;;;;4.93;1.85;;;11.00;72.20;;;;;;5100768;28;20040;-81
2022/02/24 14:04:27;;;;;;;7.70;1.92;;;10.90;73.50;;;;;;5105210;27;20039;-84
2022/02/24 14:07:29;;;;;;;8.75;2.45;;;10.90;73.80;;;;;;5102860;27;20043;-84
2022/02/24 14:10:19;;;;;;;5.72;2.20;;;10.90;75.10;;;;;;5108063;27;20069;-83
2022/02/24 14:13:09;;;;;;;5.53;2.10;;;10.90;76.10;;;;;;5108546;27;20149;-85
2022/02/24 14:16:02;;;;;;;10.90;2.63;;;10.90;75.70;;;;;;5104873;27;20047;-86
2022/02/24 14:18:56;;;;;;;8.30;2.00;;;11.00;76.10;;;;;;5112683;27;20065;-83
2022/02/24 14:21:44;;;;;;;7.25;1.92;;;11.00;75.60;;;;;;5119676;27;20043;-86
2022/02/24 14:24:31;;;;;;;6.55;1.90;;;10.90;75.90;;;;;;5109686;27;20055;-84
2022/02/24 14:27:18;;;;;;;6.35;2.10;;;10.90;76.50;;;;;;5111536;27;20047;-83
2022/02/24 14:30:08;;;;;;;6.90;2.00;;;10.90;75.80;;;;;;5115397;28;20054;-86
2022/02/24 14:33:01;;;;;;;6.43;2.35;;;10.80;76.00;;;;;;5113272;28;20059;-83
2022/02/24 14:35:52;;;;;;;4.45;1.90;;;10.80;76.00;;;;;;5117569;27;20048;-82
2022/02/24 14:38:43;;;;;;;5.18;1.70;;;10.80;76.00;;;;;;5117622;27;20048;-83
2022/02/24 14:41:30;;;;;;;5.53;2.13;;;10.70;76.80;;;;;;5122924;27;20036;-80
2022/02/24 14:44:19;;;;;;;5.78;2.08;;;10.70;77.20;;;;;;5127032;27;20051;-80
2022/02/24 14:47:09;;;;;;;6.70;1.85;;;10.80;77.20;;;;;;5137380;27;20142;-81
2022/02/24 14:49:58;;;;;;;5.53;2.00;;;10.80;77.60;;;;;;5116765;27;20108;-81
2022/02/24 14:52:46;;;;;;;3.70;1.85;;;10.80;77.50;;;;;;5133158;27;20040;-83
2022/02/24 14:55:36;;;;;;;10.32;1.75;;;10.70;78.00;;;;;;5133903;27;20093;-83
2022/02/24 14:58:23;;;;;;;6.50;2.25;;;10.70;78.10;;;;;;5132021;27;20044;-83
2022/02/24 15:01:11;;;;;;;5.93;2.15;;;10.70;78.40;;;;;;5126378;28;20043;-85
2022/02/24 15:04:00;;;;;;;5.80;1.88;;;10.60;78.30;;;;;;5104394;28;20039;-85
2022/02/24 15:06:47;;;;;;;11.13;2.50;;;10.60;78.70;;;;;;5102353;28;20050;-83
2022/02/24 15:09:35;;;;;;;5.57;1.80;;;10.60;79.60;;;;;;5114569;28;20047;-84
2022/02/24 15:12:43;;;;;;;7.32;2.00;;;10.60;78.80;;;;;;5103234;28;20349;-84
2022/02/24 15:15:35;;;;;;;6.65;1.80;;;10.60;80.10;;;;;;5101056;28;20044;-85
2022/02/24 15:18:23;;;;;;;4.30;1.70;;;10.50;79.70;;;;;;5119083;27;20075;-82
2022/02/24 15:21:11;;;;;;;4.00;1.98;;;10.50;80.60;;;;;;5101733;28;20039;-82
2022/02/24 15:24:01;;;;;;;5.03;1.55;;;10.60;79.50;;;;;;5106084;28;20100;-81
2022/02/24 15:26:48;;;;;;;8.25;2.13;;;10.70;79.50;;;;;;5110244;28;20352;-83
2022/02/24 15:29:36;;;;;;;7.22;2.20;;;10.70;79.40;;;;;;5098813;28;20144;-83
2022/02/24 15:32:24;;;;;;;7.20;2.50;;;10.80;79.00;;;;;;5106697;28;20055;-83
2022/02/24 15:35:11;;;;;;;5.95;2.10;;;10.70;79.00;;;;;;5111026;28;20054;-82
2022/02/24 15:37:58;;;;;;;6.60;2.05;;;10.70;79.40;;;;;;5101066;28;20123;-86
2022/02/24 15:40:49;;;;;;;5.57;1.98;;;10.70;80.10;;;;;;5116299;28;20051;-86